createdAt,value
2019-03-20T00:01:44.666Z,17.27
2019-03-20T00:04:13.026Z,13.90
2019-03-20T00:06:41.302Z,9.80
2019-03-20T00:09:09.562Z,7.73
2019-03-20T00:11:37.854Z,12.40
2019-03-20T00:14:06.093Z,8.70
2019-03-20T00:16:34.387Z,14.47
2019-03-20T00:19:02.637Z,8.03
2019-03-20T00:21:30.975Z,5.63
2019-03-20T00:23:59.231Z,9.40
2019-03-20T00:26:27.507Z,13.30
2019-03-20T00:32:06.889Z,7.53
2019-03-20T00:34:35.155Z,12.23
2019-03-20T00:37:03.418Z,9.73
2019-03-20T00:39:31.689Z,5.90
2019-03-20T00:48:16.794Z,13.35
2019-03-20T00:50:45.060Z,7.15
2019-03-20T00:53:13.341Z,11.57
2019-03-20T00:55:41.614Z,10.77
2019-03-20T00:58:10.248Z,13.05
2019-03-20T01:04:11.398Z,10.50
2019-03-20T01:06:39.675Z,10.83
2019-03-20T01:09:08.024Z,13.07
2019-03-20T01:11:36.299Z,6.00
2019-03-20T01:14:04.642Z,11.00
2019-03-20T01:20:00.333Z,6.37
2019-03-20T01:22:28.560Z,4.50
2019-03-20T01:27:47.219Z,7.90
2019-03-20T01:33:36.952Z,4.60
2019-03-20T01:36:05.239Z,10.83
2019-03-20T01:41:20.820Z,8.65
2019-03-20T01:43:49.093Z,11.20
2019-03-20T01:46:18.184Z,6.65
2019-03-20T01:48:46.458Z,5.40
2019-03-20T01:54:20.137Z,7.22
2019-03-20T01:56:48.410Z,4.30
2019-03-20T01:59:16.665Z,5.60
2019-03-20T02:01:44.939Z,11.93
2019-03-20T02:04:13.205Z,14.15
2019-03-20T02:06:41.480Z,14.57
2019-03-20T02:09:09.756Z,14.90
2019-03-20T02:17:33.405Z,7.40
2019-03-20T02:20:01.668Z,4.20
2019-03-20T02:22:29.938Z,9.37
2019-03-20T02:24:58.213Z,12.30
2019-03-20T02:27:26.492Z,4.72
2019-03-20T02:29:54.797Z,4.45
2019-03-20T02:32:23.082Z,6.72
2019-03-20T02:34:51.377Z,6.33
2019-03-20T02:37:19.633Z,8.93
2019-03-20T02:39:47.905Z,5.47
2019-03-20T02:42:16.186Z,6.80
2019-03-20T02:44:44.452Z,8.90
2019-03-20T02:47:12.705Z,6.53
2019-03-20T02:49:40.978Z,4.42
2019-03-20T02:52:09.257Z,5.60
2019-03-20T02:57:24.845Z,6.20
2019-03-20T02:59:53.113Z,5.83
2019-03-20T03:02:21.442Z,7.97
2019-03-20T03:04:49.717Z,7.17
2019-03-20T03:07:17.979Z,5.85
2019-03-20T03:09:46.247Z,11.12
2019-03-20T03:12:14.508Z,6.90
2019-03-20T03:14:42.787Z,8.13
2019-03-20T03:17:11.138Z,3.67
2019-03-20T03:19:39.398Z,3.10
2019-03-20T03:22:07.682Z,6.78
2019-03-20T03:24:35.952Z,9.68
2019-03-20T03:27:04.233Z,11.30
2019-03-20T03:29:32.488Z,8.67
2019-03-20T03:32:00.768Z,7.73
2019-03-20T03:34:29.022Z,4.43
2019-03-20T03:36:57.302Z,7.97
2019-03-20T03:39:25.570Z,4.50
2019-03-20T03:41:53.854Z,10.23
2019-03-20T03:44:22.122Z,4.20
2019-03-20T03:46:50.385Z,8.43
2019-03-20T03:49:18.644Z,9.10
2019-03-20T03:51:46.956Z,6.60
2019-03-20T03:54:15.195Z,13.93
2019-03-20T03:56:43.469Z,4.43
2019-03-20T03:59:11.727Z,5.37
2019-03-20T04:01:40.013Z,7.83
2019-03-20T04:04:08.275Z,5.73
2019-03-20T04:06:36.561Z,6.20
2019-03-20T04:12:26.196Z,8.13
2019-03-20T04:14:54.468Z,10.87
2019-03-20T04:17:42.079Z,10.58
2019-03-20T04:23:31.215Z,8.75
2019-03-20T04:28:57.711Z,10.88
2019-03-20T04:31:25.952Z,7.10
2019-03-20T04:33:54.212Z,7.25
2019-03-20T04:36:22.487Z,7.30
2019-03-20T04:38:50.771Z,12.30
2019-03-20T04:41:19.041Z,9.93
2019-03-20T04:43:47.301Z,9.60
2019-03-20T04:46:15.577Z,8.30
2019-03-20T04:48:43.838Z,6.10
2019-03-20T04:51:12.118Z,7.70
2019-03-20T04:53:40.490Z,9.07
2019-03-20T04:56:08.769Z,7.50
2019-03-20T04:58:37.047Z,11.43
2019-03-20T05:01:05.389Z,11.43
2019-03-20T05:03:33.671Z,10.20
2019-03-20T05:06:01.941Z,11.87
2019-03-20T05:08:30.248Z,13.63
2019-03-20T05:10:58.491Z,13.80
2019-03-20T05:13:26.768Z,7.62
2019-03-20T05:15:55.033Z,25.43
2019-03-20T05:18:23.328Z,11.73
2019-03-20T05:20:51.584Z,13.93
2019-03-20T05:26:25.786Z,12.23
2019-03-20T05:31:51.390Z,13.60
2019-03-20T05:34:19.663Z,15.57
2019-03-20T05:36:47.928Z,17.20
2019-03-20T05:39:16.209Z,16.47
2019-03-20T05:41:44.485Z,18.33
2019-03-20T05:44:12.769Z,18.53
2019-03-20T05:46:41.037Z,25.80
2019-03-20T05:49:09.329Z,19.50
2019-03-20T05:51:37.600Z,18.27
2019-03-20T05:54:05.882Z,20.23
2019-03-20T05:56:34.144Z,22.80
2019-03-20T05:59:02.426Z,21.97
2019-03-20T06:01:30.708Z,22.37
2019-03-20T06:03:58.977Z,25.20
2019-03-20T06:06:27.255Z,21.33
2019-03-20T06:11:51.070Z,25.57
2019-03-20T06:14:19.355Z,25.00
2019-03-20T06:16:47.634Z,24.83
2019-03-20T06:19:15.909Z,29.10
2019-03-20T06:21:44.188Z,25.57
2019-03-20T06:24:12.469Z,21.47
2019-03-20T06:26:53.204Z,24.50
2019-03-20T06:29:21.522Z,19.67
2019-03-20T06:31:49.799Z,21.25
2019-03-20T06:34:18.075Z,23.20
2019-03-20T06:36:46.354Z,24.55
2019-03-20T06:39:14.632Z,25.55
2019-03-20T06:41:42.893Z,27.20
2019-03-20T06:44:11.187Z,25.63
2019-03-20T06:50:13.045Z,24.63
2019-03-20T06:52:41.318Z,28.00
2019-03-20T06:58:25.574Z,32.75
2019-03-20T07:14:16.507Z,25.90
2019-03-20T07:16:44.790Z,23.60
2019-03-20T07:19:13.053Z,32.33
2019-03-20T07:21:41.326Z,28.45
2019-03-20T07:24:09.594Z,30.30
2019-03-20T07:26:37.852Z,27.77
2019-03-20T07:29:06.132Z,31.20
2019-03-20T07:31:34.403Z,26.10
2019-03-20T07:34:21.374Z,29.52
2019-03-20T07:39:57.938Z,30.57
2019-03-20T07:42:26.217Z,30.13
2019-03-20T07:44:54.480Z,32.93
2019-03-20T07:47:22.794Z,30.72
2019-03-20T07:52:44.519Z,33.20
2019-03-20T07:55:12.786Z,27.47
2019-03-20T07:57:41.063Z,33.70
2019-03-20T08:03:29.899Z,31.85
2019-03-20T08:05:58.172Z,34.33
2019-03-20T08:08:26.449Z,32.83
2019-03-20T08:10:54.733Z,29.55
2019-03-20T08:13:22.995Z,29.72
2019-03-20T08:18:52.922Z,34.93
2019-03-20T08:21:21.187Z,33.87
2019-03-20T08:23:49.463Z,38.37
2019-03-20T08:26:17.778Z,32.20
2019-03-20T08:28:46.048Z,32.70
2019-03-20T08:31:14.325Z,33.00
2019-03-20T08:33:42.585Z,34.77
2019-03-20T08:36:10.881Z,35.13
2019-03-20T08:38:39.138Z,33.53
2019-03-20T08:41:07.404Z,30.30
2019-03-20T08:43:35.680Z,28.90
2019-03-20T08:46:03.949Z,30.62
2019-03-20T08:48:32.226Z,28.53
2019-03-20T08:51:00.507Z,30.53
2019-03-20T08:53:28.762Z,25.97
2019-03-20T08:55:57.053Z,30.93
2019-03-20T08:58:25.330Z,28.47
2019-03-20T09:00:53.608Z,30.60
2019-03-20T09:06:42.464Z,32.58
2019-03-20T09:09:10.724Z,27.85
2019-03-20T09:11:38.994Z,31.75
2019-03-20T09:14:07.260Z,31.10
2019-03-20T09:16:35.536Z,29.48
2019-03-20T09:19:03.812Z,33.30
2019-03-20T09:21:32.103Z,31.20
2019-03-20T09:24:00.373Z,29.65
2019-03-20T09:26:28.651Z,28.40
2019-03-20T09:28:56.926Z,32.83
2019-03-20T09:31:25.224Z,31.17
2019-03-20T09:37:11.152Z,26.63
2019-03-20T09:39:39.418Z,28.13
2019-03-20T09:42:07.680Z,29.23
2019-03-20T09:44:35.956Z,24.67
2019-03-20T09:47:04.221Z,26.10
2019-03-20T09:49:32.782Z,28.38
2019-03-20T09:52:38.571Z,25.57
2019-03-20T10:01:25.669Z,24.90
2019-03-20T10:03:53.951Z,29.65
2019-03-20T10:06:22.231Z,28.73
2019-03-20T10:09:08.575Z,24.70
2019-03-20T10:11:36.844Z,24.23
2019-03-20T10:16:52.508Z,25.10
2019-03-20T10:19:20.790Z,23.40
2019-03-20T10:21:49.054Z,26.68
2019-03-20T10:24:17.332Z,25.45
2019-03-20T10:26:45.605Z,23.57
2019-03-20T10:29:13.893Z,23.57
2019-03-20T10:31:42.159Z,26.47
2019-03-20T10:34:10.427Z,26.73
2019-03-20T10:36:38.696Z,26.50
2019-03-20T10:42:18.272Z,27.55
2019-03-20T10:44:46.523Z,26.97
2019-03-20T10:47:16.852Z,25.77
2019-03-20T10:49:45.126Z,26.77
2019-03-20T10:52:15.117Z,25.37
2019-03-20T10:55:17.086Z,26.47
2019-03-20T10:57:45.448Z,33.17
2019-03-20T11:03:24.873Z,30.73
2019-03-20T11:05:53.154Z,30.90
2019-03-20T11:08:21.435Z,30.40
2019-03-20T11:10:49.731Z,30.67
2019-03-20T11:13:18.069Z,33.63
2019-03-20T11:21:27.658Z,27.60
2019-03-20T11:23:56.080Z,29.43
2019-03-20T11:26:24.345Z,30.45
2019-03-20T11:28:52.626Z,27.90
2019-03-20T11:31:20.898Z,31.00
2019-03-20T11:33:49.190Z,34.92
2019-03-20T11:36:17.449Z,32.43
2019-03-20T11:38:45.740Z,31.40
2019-03-20T11:41:14.003Z,31.90
2019-03-20T11:43:43.017Z,29.90
2019-03-20T11:46:11.290Z,39.65
2019-03-20T11:51:35.106Z,32.53
2019-03-20T11:54:03.382Z,32.73
2019-03-20T11:59:27.790Z,31.67
2019-03-20T12:01:56.051Z,35.70
2019-03-20T12:04:24.310Z,29.97
2019-03-20T12:09:59.030Z,35.53
2019-03-20T12:12:28.002Z,35.60
2019-03-20T12:14:56.290Z,30.60
2019-03-20T12:17:24.600Z,34.80
2019-03-20T12:25:49.853Z,37.00
2019-03-20T12:28:18.129Z,39.77
2019-03-20T12:30:46.413Z,35.33
2019-03-20T12:33:14.684Z,39.43
2019-03-20T12:38:38.494Z,41.03
2019-03-20T12:41:06.767Z,43.63
2019-03-20T12:46:22.373Z,36.77
2019-03-20T12:49:06.413Z,42.90
2019-03-20T13:01:31.839Z,42.90
2019-03-20T13:04:00.124Z,46.07
2019-03-20T13:09:25.718Z,46.45
2019-03-20T13:11:53.992Z,44.20
2019-03-20T13:14:22.299Z,40.40
2019-03-20T13:16:50.563Z,47.37
2019-03-20T13:19:18.846Z,46.20
2019-03-20T13:21:47.681Z,50.67
2019-03-20T13:24:17.130Z,49.77
2019-03-20T13:26:45.401Z,41.93
2019-03-20T13:29:13.672Z,48.83
2019-03-20T13:31:41.972Z,42.93
2019-03-20T13:34:10.255Z,48.70
2019-03-20T13:36:38.524Z,41.90
2019-03-20T13:42:14.279Z,45.80
2019-03-20T13:44:42.551Z,37.90
2019-03-20T13:47:10.831Z,44.10
2019-03-20T13:49:39.102Z,42.17
2019-03-20T13:52:07.383Z,40.92
2019-03-20T13:54:35.659Z,45.08
2019-03-20T14:03:18.298Z,39.53
2019-03-20T14:05:46.571Z,41.48
2019-03-20T14:11:33.655Z,41.15
2019-03-20T14:14:01.933Z,42.93
2019-03-20T14:16:30.200Z,43.03
2019-03-20T14:18:58.487Z,41.18
2019-03-20T14:21:26.754Z,40.87
2019-03-20T14:23:55.037Z,45.33
2019-03-20T14:26:23.303Z,49.37
2019-03-20T14:28:51.589Z,48.43
2019-03-20T14:34:37.532Z,48.43
2019-03-20T14:37:05.826Z,46.87
2019-03-20T14:39:34.103Z,50.23
2019-03-20T14:42:02.383Z,51.30
2019-03-20T14:44:30.658Z,52.80
2019-03-20T14:46:58.931Z,48.78
2019-03-20T14:49:27.213Z,50.00
2019-03-20T14:52:32.665Z,53.13
2019-03-20T14:55:00.947Z,52.75
2019-03-20T14:57:29.216Z,50.33
2019-03-20T14:59:57.501Z,57.45
2019-03-20T15:02:25.781Z,51.10
2019-03-20T15:04:54.049Z,57.00
2019-03-20T15:07:22.329Z,53.87
2019-03-20T15:09:50.602Z,55.67
2019-03-20T15:12:18.892Z,55.63
2019-03-20T15:14:47.214Z,55.93
2019-03-20T15:17:15.518Z,58.87
2019-03-20T15:19:43.800Z,57.23
2019-03-20T15:22:12.076Z,50.77
2019-03-20T15:25:11.580Z,56.90
2019-03-20T15:27:10.367Z,51.50
2019-03-20T15:29:38.644Z,50.93
2019-03-20T15:35:15.998Z,64.10
2019-03-20T15:37:44.335Z,53.93
2019-03-20T15:40:55.863Z,55.80
2019-03-20T15:43:17.908Z,55.20
2019-03-20T15:45:46.183Z,63.23
2019-03-20T15:48:14.463Z,56.28
2019-03-20T15:50:42.739Z,61.63
2019-03-20T15:53:11.024Z,63.58
2019-03-20T15:56:13.941Z,59.83
2019-03-20T15:58:42.239Z,56.53
2019-03-20T16:01:10.514Z,55.97
2019-03-20T16:04:13.221Z,58.07
2019-03-20T16:06:41.491Z,55.07
2019-03-20T16:09:09.783Z,55.20
2019-03-20T16:11:38.063Z,52.37
2019-03-20T16:14:06.360Z,60.12
2019-03-20T16:16:34.629Z,55.43
2019-03-20T16:19:02.909Z,55.10
2019-03-20T16:21:31.194Z,51.37
2019-03-20T16:23:59.464Z,51.90
2019-03-20T16:26:27.741Z,50.17
2019-03-20T16:28:56.015Z,57.17
2019-03-20T16:31:24.302Z,67.47
2019-03-20T16:39:53.426Z,51.07
2019-03-20T16:42:21.702Z,52.83
2019-03-20T16:44:49.991Z,53.70
2019-03-20T16:47:18.269Z,57.17
2019-03-20T16:49:46.550Z,59.73
2019-03-20T16:52:15.702Z,57.23
2019-03-20T16:54:44.816Z,56.27
2019-03-20T17:09:23.242Z,71.23
2019-03-20T17:11:51.527Z,63.20
2019-03-20T17:17:17.255Z,74.30
2019-03-20T17:19:45.524Z,78.77
2019-03-20T17:22:13.831Z,84.57
2019-03-20T17:24:42.040Z,83.80
2019-03-20T17:27:10.313Z,79.33
2019-03-20T17:29:38.743Z,79.62
2019-03-20T17:32:07.013Z,75.65
2019-03-20T17:34:35.289Z,80.17
2019-03-20T17:39:52.563Z,89.47
2019-03-20T17:42:20.902Z,89.60
2019-03-20T17:44:49.239Z,78.83
2019-03-20T17:47:17.523Z,89.25
2019-03-20T17:52:45.864Z,94.05
2019-03-20T17:55:14.277Z,88.93
2019-03-20T17:57:57.696Z,95.60
2019-03-20T18:03:35.261Z,90.28
2019-03-20T18:06:03.602Z,85.97
2019-03-20T18:08:31.900Z,94.75
2019-03-20T18:11:00.157Z,93.47
2019-03-20T18:13:28.443Z,90.80
2019-03-20T18:15:56.719Z,95.37
2019-03-20T18:21:45.929Z,80.80
2019-03-20T18:27:31.750Z,73.80
2019-03-20T18:30:00.389Z,84.50
2019-03-20T18:32:28.679Z,85.80
2019-03-20T18:34:56.977Z,88.00
2019-03-20T18:37:25.265Z,78.75
2019-03-20T18:40:07.399Z,89.75
2019-03-20T18:42:35.711Z,76.97
2019-03-20T18:45:35.546Z,77.07
2019-03-20T18:51:11.986Z,74.22
2019-03-20T18:53:40.635Z,79.00
2019-03-20T18:56:08.935Z,73.77
2019-03-20T18:58:37.227Z,76.37
2019-03-20T19:01:05.530Z,73.62
2019-03-20T19:04:05.066Z,76.17
2019-03-20T19:06:33.341Z,74.13
2019-03-20T19:09:01.622Z,66.30
2019-03-20T19:11:29.914Z,69.12
2019-03-20T19:13:58.187Z,67.58
2019-03-20T19:16:26.465Z,69.03
2019-03-20T19:18:54.757Z,69.90
2019-03-20T19:21:23.042Z,67.73
2019-03-20T19:23:51.361Z,65.03
2019-03-20T19:26:19.637Z,63.30
2019-03-20T19:28:47.929Z,69.03
2019-03-20T19:31:16.216Z,66.67
2019-03-20T19:33:44.493Z,79.95
2019-03-20T19:36:12.766Z,70.07
2019-03-20T19:38:41.096Z,61.23
2019-03-20T19:41:09.392Z,71.35
2019-03-20T19:43:37.670Z,64.40
2019-03-20T19:46:05.988Z,66.93
2019-03-20T19:48:34.266Z,65.03
2019-03-20T19:51:02.614Z,61.77
2019-03-20T19:53:30.896Z,70.60
2019-03-20T19:55:59.179Z,67.77
2019-03-20T19:58:27.450Z,66.75
2019-03-20T20:00:55.763Z,70.42
2019-03-20T20:03:24.037Z,62.23
2019-03-20T20:14:56.596Z,60.60
2019-03-20T20:17:24.878Z,66.43
2019-03-20T20:19:53.148Z,63.90
2019-03-20T20:25:16.931Z,70.92
2019-03-20T20:27:45.200Z,68.50
2019-03-20T20:33:09.035Z,67.27
2019-03-20T20:35:37.316Z,70.37
2019-03-20T20:38:05.581Z,77.17
2019-03-20T20:40:33.863Z,74.27
2019-03-20T20:43:02.141Z,77.60
2019-03-20T20:45:30.431Z,72.90
2019-03-20T20:47:58.710Z,78.47
2019-03-20T20:50:26.984Z,80.35
2019-03-20T20:52:55.258Z,77.90
2019-03-20T20:58:44.972Z,80.30
2019-03-20T21:01:13.242Z,74.10
2019-03-20T21:03:41.930Z,77.55
2019-03-20T21:06:10.201Z,77.50
2019-03-20T21:08:38.481Z,82.13
2019-03-20T21:11:06.753Z,82.50
2019-03-20T21:13:35.032Z,77.27
2019-03-20T21:16:03.371Z,80.35
2019-03-20T21:25:01.889Z,76.40
2019-03-20T21:39:35.947Z,74.87
2019-03-20T21:48:45.494Z,78.97
2019-03-20T22:03:19.693Z,74.27
2019-03-20T22:06:24.674Z,78.73
2019-03-20T22:08:52.969Z,71.40
2019-03-20T22:30:15.500Z,75.85
2019-03-20T22:35:51.249Z,68.73
2019-03-20T23:07:32.099Z,72.87
2019-03-20T23:13:06.318Z,84.30
2019-03-20T23:15:34.609Z,79.87
2019-03-20T23:18:02.882Z,84.52
2019-03-20T23:23:52.181Z,73.27
2019-03-20T23:26:20.465Z,75.05
2019-03-20T23:28:48.739Z,83.60
2019-03-20T23:31:17.020Z,77.43
2019-03-20T23:33:45.303Z,76.03
2019-03-20T23:36:13.593Z,81.63
2019-03-20T23:38:41.860Z,80.20
2019-03-20T23:41:10.136Z,77.57
2019-03-20T23:53:41.791Z,77.82
2019-03-20T23:59:07.472Z,85.90
